createdAt,value
2022-08-18T00:01:17.206Z,80.00
2022-08-18T00:03:56.734Z,80.00
2022-08-18T00:06:30.111Z,80.00
2022-08-18T00:09:00.566Z,80.00
2022-08-18T00:11:41.035Z,79.90
2022-08-18T00:14:14.557Z,79.90
2022-08-18T00:16:54.312Z,79.90
2022-08-18T00:19:45.903Z,79.80
2022-08-18T00:22:15.981Z,79.80
2022-08-18T00:24:48.426Z,79.80
2022-08-18T00:27:28.557Z,79.80
2022-08-18T00:30:01.073Z,79.80
2022-08-18T00:32:33.993Z,79.90
2022-08-18T00:35:08.909Z,79.90
2022-08-18T00:37:38.035Z,79.80
2022-08-18T00:40:09.424Z,79.70
2022-08-18T00:42:43.952Z,79.80
2022-08-18T00:45:17.265Z,79.80
2022-08-18T00:47:46.332Z,79.50
2022-08-18T00:50:18.990Z,79.70
2022-08-18T00:52:54.993Z,79.70
2022-08-18T00:55:25.638Z,79.70
2022-08-18T00:58:01.339Z,79.80
2022-08-18T01:00:30.568Z,79.80
2022-08-18T01:03:02.599Z,79.60
2022-08-18T01:05:40.862Z,79.60
2022-08-18T01:08:14.277Z,79.60
2022-08-18T01:10:44.662Z,79.60
2022-08-18T01:13:15.195Z,79.60
2022-08-18T01:15:44.354Z,79.60
2022-08-18T01:18:33.022Z,79.60
2022-08-18T01:21:33.743Z,79.50
2022-08-18T01:24:08.194Z,79.60
2022-08-18T01:26:44.130Z,80.40
2022-08-18T01:29:18.961Z,79.40
2022-08-18T01:31:56.255Z,79.40
2022-08-18T01:34:28.579Z,79.30
2022-08-18T01:36:58.608Z,79.20
2022-08-18T01:41:27.544Z,79.20
2022-08-18T01:42:18.747Z,79.30
2022-08-18T01:44:51.372Z,79.30
2022-08-18T01:47:20.936Z,79.30
2022-08-18T01:49:50.248Z,79.30
2022-08-18T01:52:21.520Z,79.30
2022-08-18T01:54:54.080Z,79.40
2022-08-18T01:57:23.583Z,79.40
2022-08-18T01:59:52.860Z,79.30
2022-08-18T02:02:26.319Z,79.30
2022-08-18T02:04:58.190Z,79.20
2022-08-18T02:07:27.945Z,79.00
2022-08-18T02:10:12.008Z,78.90
2022-08-18T02:12:42.171Z,78.70
2022-08-18T02:15:12.553Z,78.70
2022-08-18T02:17:44.044Z,79.40
2022-08-18T02:20:15.308Z,78.60
2022-08-18T02:22:45.239Z,78.50
2022-08-18T02:25:17.006Z,78.40
2022-08-18T02:27:47.124Z,78.40
2022-08-18T02:30:18.220Z,78.30
2022-08-18T02:32:47.307Z,78.30
2022-08-18T02:35:16.664Z,78.30
2022-08-18T02:37:48.231Z,78.20
2022-08-18T02:40:19.654Z,78.00
2022-08-18T02:42:49.832Z,78.10
2022-08-18T02:45:19.635Z,77.80
2022-08-18T02:47:54.249Z,77.60
2022-08-18T02:50:25.036Z,77.50
2022-08-18T02:52:54.449Z,77.50
2022-08-18T02:55:26.811Z,77.40
2022-08-18T02:57:56.071Z,77.50
2022-08-18T03:00:25.200Z,77.50
2022-08-18T03:02:54.607Z,77.60
2022-08-18T03:05:23.719Z,77.50
2022-08-18T03:07:52.861Z,77.40
2022-08-18T03:10:31.891Z,77.00
2022-08-18T03:13:06.859Z,76.90
2022-08-18T03:15:36.106Z,76.60
2022-08-18T03:18:05.523Z,76.60
2022-08-18T03:20:34.658Z,76.50
2022-08-18T03:23:05.800Z,76.40
2022-08-18T03:25:45.623Z,76.30
2022-08-18T03:28:17.628Z,76.20
2022-08-18T03:30:46.769Z,76.10
2022-08-18T03:33:15.879Z,76.10
2022-08-18T03:35:44.901Z,75.90
2022-08-18T03:38:14.116Z,75.80
2022-08-18T03:40:43.340Z,75.60
2022-08-18T03:43:49.840Z,75.40
2022-08-18T03:46:04.044Z,75.40
2022-08-18T03:48:33.534Z,76.40
2022-08-18T03:51:06.857Z,75.50
2022-08-18T03:53:36.498Z,75.30
2022-08-18T03:56:17.582Z,75.90
2022-08-18T03:58:48.562Z,74.70
2022-08-18T04:01:26.177Z,74.40
2022-08-18T04:03:59.909Z,74.10
2022-08-18T04:06:31.115Z,74.00
2022-08-18T04:09:02.439Z,74.00
2022-08-18T04:11:35.716Z,73.70
2022-08-18T04:14:06.735Z,73.70
2022-08-18T04:16:38.428Z,73.40
2022-08-18T04:19:08.919Z,73.40
2022-08-18T04:21:40.804Z,73.40
2022-08-18T04:24:11.083Z,74.30
2022-08-18T04:26:42.944Z,73.40
2022-08-18T04:29:12.434Z,73.40
2022-08-18T04:31:42.987Z,73.50
2022-08-18T04:34:12.541Z,73.80
2022-08-18T04:36:43.200Z,73.90
2022-08-18T04:39:13.973Z,74.10
2022-08-18T04:41:44.661Z,74.30
2022-08-18T04:44:14.898Z,74.40
2022-08-18T04:46:48.713Z,74.60
2022-08-18T04:49:19.355Z,75.70
2022-08-18T04:52:26.986Z,75.00
2022-08-18T04:55:01.711Z,75.30
2022-08-18T04:57:33.675Z,75.40
2022-08-18T05:00:07.623Z,75.80
2022-08-18T05:02:38.105Z,75.90
2022-08-18T05:05:08.070Z,76.00
2022-08-18T05:07:37.170Z,76.00
2022-08-18T05:10:07.061Z,76.00
2022-08-18T05:12:36.523Z,76.20
2022-08-18T05:15:06.773Z,76.10
2022-08-18T05:17:39.872Z,76.10
2022-08-18T05:20:11.005Z,76.10
2022-08-18T05:22:41.419Z,76.10
2022-08-18T05:25:13.597Z,76.10
2022-08-18T05:27:44.903Z,76.10
2022-08-18T05:30:15.381Z,76.10
2022-08-18T05:32:50.185Z,76.20
2022-08-18T05:35:26.743Z,76.30
2022-08-18T05:38:27.078Z,76.30
2022-08-18T05:41:07.570Z,76.40
2022-08-18T05:43:51.697Z,76.50
2022-08-18T05:46:26.009Z,76.50
2022-08-18T05:48:56.417Z,76.60
2022-08-18T05:51:34.439Z,76.80
2022-08-18T05:54:21.989Z,76.80
2022-08-18T05:56:53.417Z,76.80
2022-08-18T05:59:24.250Z,77.80
2022-08-18T06:01:59.874Z,77.00
2022-08-18T06:04:42.704Z,76.70
2022-08-18T06:07:15.641Z,76.80
2022-08-18T06:09:50.589Z,76.90
2022-08-18T06:12:27.048Z,76.90
2022-08-18T06:15:05.820Z,76.90
2022-08-18T06:17:58.538Z,77.00
2022-08-18T06:20:35.222Z,77.20
2022-08-18T06:23:28.126Z,77.10
2022-08-18T06:26:11.821Z,77.30
2022-08-18T06:28:59.142Z,77.30
2022-08-18T06:31:36.839Z,77.40
2022-08-18T06:34:15.791Z,77.40
2022-08-18T06:36:54.145Z,77.50
2022-08-18T06:39:30.538Z,77.50
2022-08-18T06:41:59.710Z,77.50
2022-08-18T06:44:34.752Z,77.50
2022-08-18T06:47:18.647Z,77.80
2022-08-18T06:49:54.972Z,78.00
2022-08-18T06:52:30.246Z,78.50
2022-08-18T06:55:02.340Z,78.90
2022-08-18T06:57:34.981Z,79.30
2022-08-18T07:00:11.419Z,79.30
2022-08-18T07:02:52.455Z,79.10
2022-08-18T07:05:24.431Z,78.90
2022-08-18T07:08:12.768Z,78.80
2022-08-18T07:10:44.678Z,78.70
2022-08-18T07:13:23.296Z,78.60
2022-08-18T07:15:52.482Z,78.60
2022-08-18T07:18:28.005Z,78.50
2022-08-18T07:21:02.634Z,78.60
2022-08-18T07:23:38.414Z,78.40
2022-08-18T07:26:15.202Z,78.30
2022-08-18T07:28:46.740Z,78.20
2022-08-18T07:31:27.223Z,78.30
2022-08-18T07:34:02.215Z,78.20
2022-08-18T07:36:36.668Z,78.20
2022-08-18T07:39:15.277Z,78.30
2022-08-18T07:41:50.770Z,78.20
2022-08-18T07:44:26.229Z,77.80
2022-08-18T07:47:00.789Z,77.60
2022-08-18T07:49:35.355Z,77.50
2022-08-18T07:52:19.242Z,77.70
2022-08-18T07:55:07.502Z,77.60
2022-08-18T07:57:50.411Z,77.60
2022-08-18T08:00:54.894Z,77.60
2022-08-18T08:03:30.604Z,77.50
2022-08-18T08:06:06.906Z,77.50
2022-08-18T08:08:43.320Z,77.40
2022-08-18T08:11:27.511Z,77.30
2022-08-18T08:14:12.395Z,77.20
2022-08-18T08:16:47.560Z,77.20
2022-08-18T08:20:00.164Z,77.40
2022-08-18T08:22:37.632Z,77.90
2022-08-18T08:25:42.260Z,77.90
2022-08-18T08:28:19.046Z,78.10
2022-08-18T08:30:54.645Z,78.40
2022-08-18T08:33:29.525Z,78.40
2022-08-18T08:36:04.690Z,78.50
2022-08-18T08:38:42.643Z,78.60
2022-08-18T08:41:20.985Z,78.80
2022-08-18T08:44:01.807Z,78.70
2022-08-18T08:46:44.769Z,78.50
2022-08-18T08:49:29.924Z,78.30
2022-08-18T08:52:03.600Z,78.00
2022-08-18T08:54:41.518Z,77.30
2022-08-18T08:57:12.506Z,76.80
2022-08-18T08:59:46.708Z,76.20
2022-08-18T09:02:49.688Z,76.00
2022-08-18T09:05:23.939Z,75.60
2022-08-18T09:08:21.176Z,75.40
2022-08-18T09:11:19.150Z,75.20
2022-08-18T09:14:24.729Z,74.90
2022-08-18T09:17:10.399Z,74.80
2022-08-18T09:20:13.063Z,74.80
2022-08-18T09:22:49.016Z,74.90
2022-08-18T09:25:44.884Z,74.90
2022-08-18T09:28:18.266Z,74.90
2022-08-18T09:30:52.996Z,74.70
2022-08-18T09:33:34.276Z,74.40
2022-08-18T09:36:32.270Z,74.20
2022-08-18T09:39:40.349Z,74.00
2022-08-18T09:42:14.400Z,74.10
2022-08-18T09:45:08.818Z,74.30
2022-08-18T09:48:02.544Z,74.70
2022-08-18T09:50:55.321Z,74.70
2022-08-18T09:53:54.077Z,74.70
2022-08-18T09:57:11.771Z,74.50
2022-08-18T10:00:28.269Z,74.60
2022-08-18T10:03:13.687Z,74.60
2022-08-18T10:05:59.444Z,74.60
2022-08-18T10:08:38.755Z,74.80
2022-08-18T10:11:42.799Z,74.90
2022-08-18T10:14:51.394Z,75.00
2022-08-18T10:17:42.105Z,75.30
2022-08-18T10:20:27.144Z,75.40
2022-08-18T10:22:58.006Z,75.70
2022-08-18T10:25:37.454Z,75.70
2022-08-18T10:28:10.026Z,75.70
2022-08-18T10:31:06.355Z,75.80
2022-08-18T10:34:19.034Z,75.70
2022-08-18T10:36:54.420Z,75.50
2022-08-18T10:39:46.394Z,75.40
2022-08-18T10:42:31.022Z,75.40
2022-08-18T10:45:09.359Z,75.50
2022-08-18T10:47:39.231Z,75.60
2022-08-18T10:50:20.394Z,75.30
2022-08-18T10:56:10.633Z,75.30
2022-08-18T10:58:51.085Z,75.20
2022-08-18T11:01:42.934Z,75.00
2022-08-18T11:04:34.127Z,74.90
2022-08-18T11:07:11.584Z,75.00
2022-08-18T11:09:50.767Z,74.90
2022-08-18T11:13:03.120Z,75.00
2022-08-18T11:15:50.571Z,75.00
2022-08-18T11:18:32.581Z,74.90
2022-08-18T11:21:32.824Z,75.00
2022-08-18T11:24:07.493Z,75.10
2022-08-18T11:26:41.213Z,75.30
2022-08-18T11:29:33.073Z,75.60
2022-08-18T11:32:11.130Z,75.90
2022-08-18T11:37:48.508Z,76.10
2022-08-18T11:41:10.846Z,76.00
2022-08-18T11:43:30.003Z,76.10
2022-08-18T11:52:26.155Z,76.10
2022-08-18T11:55:16.713Z,76.10
2022-08-18T11:57:58.940Z,76.00
2022-08-18T12:00:57.173Z,76.50
2022-08-18T12:03:37.790Z,76.70
2022-08-18T12:06:26.660Z,76.80
2022-08-18T12:09:00.478Z,76.80
2022-08-18T12:11:33.879Z,77.00
2022-08-18T12:16:59.726Z,77.40
2022-08-18T12:19:34.313Z,77.50
2022-08-18T12:22:17.552Z,77.50
2022-08-18T12:24:48.442Z,77.70
2022-08-18T12:27:22.204Z,77.60
2022-08-18T12:29:52.956Z,77.70
2022-08-18T12:32:52.669Z,77.90
2022-08-18T12:35:14.138Z,78.10
2022-08-18T12:38:11.227Z,78.40
2022-08-18T12:40:34.545Z,79.70
2022-08-18T12:43:03.669Z,79.10
2022-08-18T12:45:37.933Z,79.60
2022-08-18T12:48:07.873Z,80.20
2022-08-18T12:53:38.223Z,80.70
2022-08-18T12:56:24.735Z,80.90
2022-08-18T12:58:55.529Z,81.10
2022-08-18T13:01:26.665Z,81.30
2022-08-18T13:04:10.868Z,81.40
2022-08-18T13:07:00.335Z,81.50
2022-08-18T13:09:47.519Z,81.20
2022-08-18T13:12:20.838Z,81.30
2022-08-18T13:14:51.449Z,81.30
2022-08-18T13:17:32.122Z,81.30
2022-08-18T13:20:06.311Z,81.30
2022-08-18T13:22:41.071Z,81.30
2022-08-18T13:25:32.006Z,81.20
2022-08-18T13:28:02.465Z,81.40
2022-08-18T13:30:32.728Z,81.20
2022-08-18T13:33:06.012Z,81.20
2022-08-18T13:35:54.230Z,81.20
2022-08-18T13:38:27.681Z,81.00
2022-08-18T13:41:00.054Z,80.90
2022-08-18T13:43:35.174Z,80.60
2022-08-18T13:46:04.926Z,80.70
2022-08-18T13:48:34.902Z,80.70
2022-08-18T13:51:05.166Z,80.40
2022-08-18T13:53:50.557Z,80.00
2022-08-18T13:56:20.770Z,79.50
2022-08-18T13:59:01.739Z,79.30
2022-08-18T14:01:45.072Z,79.10
2022-08-18T14:04:22.973Z,78.90
2022-08-18T14:07:00.523Z,78.70
2022-08-18T14:09:37.263Z,78.20
2022-08-18T14:12:15.755Z,78.00
2022-08-18T14:14:52.384Z,77.80
2022-08-18T14:17:22.871Z,77.70
2022-08-18T14:20:10.447Z,77.50
2022-08-18T14:23:01.641Z,77.20
2022-08-18T14:25:51.456Z,77.00
2022-08-18T14:28:24.507Z,76.50
2022-08-18T14:30:55.274Z,76.00
2022-08-18T14:33:49.777Z,75.70
2022-08-18T14:36:16.673Z,75.40
2022-08-18T14:38:51.393Z,75.20
2022-08-18T14:41:27.220Z,75.00
2022-08-18T14:44:13.726Z,74.80
2022-08-18T14:46:54.069Z,74.60
2022-08-18T14:49:29.445Z,74.10
2022-08-18T14:51:59.895Z,73.60
2022-08-18T14:54:30.727Z,73.30
2022-08-18T14:57:02.894Z,73.20
2022-08-18T14:59:37.545Z,73.00
2022-08-18T15:02:11.231Z,72.90
2022-08-18T15:04:56.383Z,72.90
2022-08-18T15:07:27.709Z,73.00
2022-08-18T15:10:16.092Z,73.10
2022-08-18T15:12:47.365Z,72.90
2022-08-18T15:15:17.947Z,72.40
2022-08-18T15:17:50.047Z,72.10
2022-08-18T15:20:19.790Z,71.70
2022-08-18T15:23:10.736Z,71.30
2022-08-18T15:25:46.129Z,70.90
2022-08-18T15:28:20.247Z,70.50
2022-08-18T15:30:51.783Z,70.30
2022-08-18T15:33:25.295Z,70.20
2022-08-18T15:36:01.385Z,70.00
2022-08-18T15:38:30.648Z,70.00
2022-08-18T15:41:05.908Z,69.70
2022-08-18T15:43:40.063Z,69.40
2022-08-18T15:46:16.826Z,69.30
2022-08-18T15:48:46.130Z,69.20
2022-08-18T15:51:15.191Z,69.10
2022-08-18T15:53:46.323Z,69.00
2022-08-18T15:56:20.700Z,68.70
2022-08-18T15:58:53.206Z,68.30
2022-08-18T16:01:30.318Z,67.90
2022-08-18T16:04:03.241Z,67.70
2022-08-18T16:06:35.650Z,67.30
2022-08-18T16:09:05.593Z,66.50
2022-08-18T16:11:34.648Z,65.70
2022-08-18T16:14:05.031Z,64.80
2022-08-18T16:16:36.097Z,64.30
2022-08-18T16:19:07.685Z,63.70
2022-08-18T16:21:39.848Z,64.20
2022-08-18T16:24:09.554Z,62.90
2022-08-18T16:26:38.743Z,62.80
2022-08-18T16:29:09.329Z,62.50
2022-08-18T16:31:40.009Z,62.50
2022-08-18T16:34:09.539Z,62.50
2022-08-18T16:36:38.513Z,62.40
2022-08-18T16:39:07.577Z,62.20
2022-08-18T16:41:38.926Z,62.30
2022-08-18T16:44:09.441Z,62.40
2022-08-18T16:46:38.782Z,62.50
2022-08-18T16:49:08.218Z,62.70
2022-08-18T16:51:38.235Z,63.00
2022-08-18T16:54:07.453Z,62.90
2022-08-18T16:56:37.874Z,63.10
2022-08-18T16:59:25.864Z,62.70
2022-08-18T17:02:12.543Z,62.30
2022-08-18T17:04:41.919Z,61.90
2022-08-18T17:07:11.183Z,62.00
2022-08-18T17:09:40.776Z,61.80
2022-08-18T17:12:10.235Z,61.90
2022-08-18T17:14:40.742Z,61.90
2022-08-18T17:17:09.818Z,61.60
2022-08-18T17:19:38.912Z,61.60
2022-08-18T17:22:08.201Z,62.30
2022-08-18T17:24:37.769Z,61.20
2022-08-18T17:27:26.610Z,60.90
2022-08-18T17:30:05.414Z,60.60
2022-08-18T17:32:41.929Z,60.30
2022-08-18T17:35:14.901Z,60.10
2022-08-18T17:37:49.516Z,59.90
2022-08-18T17:40:22.283Z,59.60
2022-08-18T17:42:53.537Z,59.50
2022-08-18T17:45:24.714Z,59.40
2022-08-18T17:48:01.319Z,59.30
2022-08-18T17:50:53.703Z,58.90
2022-08-18T17:53:23.673Z,58.80
2022-08-18T17:55:59.871Z,58.80
2022-08-18T17:58:39.364Z,59.10
2022-08-18T18:01:10.877Z,58.10
2022-08-18T18:03:40.906Z,58.00
2022-08-18T18:06:15.133Z,57.80
2022-08-18T18:08:57.106Z,57.60
2022-08-18T18:11:31.013Z,57.30
2022-08-18T18:14:01.745Z,57.30
2022-08-18T18:16:36.028Z,57.00
2022-08-18T18:19:07.603Z,56.60
2022-08-18T18:21:58.881Z,57.20
2022-08-18T18:24:32.823Z,56.40
2022-08-18T18:27:02.312Z,56.30
2022-08-18T18:29:38.162Z,56.40
2022-08-18T18:32:25.334Z,56.40
2022-08-18T18:35:15.216Z,56.30
2022-08-18T18:37:54.091Z,56.40
2022-08-18T18:40:30.951Z,56.50
2022-08-18T18:43:20.238Z,56.30
2022-08-18T18:46:10.612Z,55.90
2022-08-18T18:49:00.623Z,55.90
2022-08-18T18:51:35.869Z,55.90
2022-08-18T18:54:16.579Z,55.80
2022-08-18T18:56:52.137Z,55.70
2022-08-18T18:59:35.658Z,56.00
2022-08-18T19:02:33.048Z,56.30
2022-08-18T19:05:16.714Z,56.60
2022-08-18T19:07:58.275Z,56.90
2022-08-18T19:10:35.092Z,57.30
2022-08-18T19:13:11.800Z,57.60
2022-08-18T19:15:58.854Z,57.70
2022-08-18T19:18:32.278Z,57.90
2022-08-18T19:22:03.535Z,58.00
2022-08-18T19:24:03.737Z,58.10
2022-08-18T19:26:38.966Z,58.20
2022-08-18T19:29:13.890Z,58.20
2022-08-18T19:31:48.946Z,58.10
2022-08-18T19:34:22.899Z,58.00
2022-08-18T19:37:07.134Z,57.90
2022-08-18T19:39:42.761Z,57.80
2022-08-18T19:42:20.912Z,57.90
2022-08-18T19:45:15.966Z,57.80
2022-08-18T19:47:51.376Z,57.80
2022-08-18T19:50:30.745Z,57.90
2022-08-18T19:53:16.448Z,57.90
2022-08-18T19:56:03.376Z,57.90
2022-08-18T19:59:11.492Z,58.00
2022-08-18T20:01:52.924Z,58.80
2022-08-18T20:04:36.158Z,58.20
2022-08-18T20:07:55.258Z,58.40
2022-08-18T20:10:54.154Z,58.40
2022-08-18T20:13:33.116Z,58.50
2022-08-18T20:16:16.232Z,58.60
2022-08-18T20:18:49.106Z,58.80
2022-08-18T20:21:45.416Z,58.90
2022-08-18T20:24:38.763Z,59.00
2022-08-18T20:27:35.147Z,59.00
2022-08-18T20:30:24.235Z,59.00
2022-08-18T20:33:19.945Z,59.10
2022-08-18T20:36:00.499Z,59.20
2022-08-18T20:38:34.868Z,59.20
2022-08-18T20:41:31.400Z,59.20
2022-08-18T20:44:32.544Z,59.10
2022-08-18T20:47:19.867Z,59.10
2022-08-18T20:50:00.988Z,59.00
2022-08-18T20:52:38.607Z,59.10
2022-08-18T20:55:27.523Z,59.20
2022-08-18T20:58:08.364Z,59.10
2022-08-18T21:00:44.363Z,59.20
2022-08-18T21:03:32.269Z,59.20
2022-08-18T21:06:07.318Z,59.30
2022-08-18T21:08:40.531Z,59.40
2022-08-18T21:11:30.970Z,59.50
2022-08-18T21:14:04.308Z,59.60
2022-08-18T21:16:39.389Z,59.70
2022-08-18T21:19:14.438Z,59.80
2022-08-18T21:21:53.715Z,60.00
2022-08-18T21:24:35.681Z,60.10
2022-08-18T21:27:07.989Z,60.10
2022-08-18T21:29:39.224Z,60.20
2022-08-18T21:32:21.963Z,60.40
2022-08-18T21:34:51.597Z,60.70
2022-08-18T21:37:21.237Z,60.80
2022-08-18T21:39:59.541Z,61.00
2022-08-18T21:42:31.931Z,61.30
2022-08-18T21:45:01.459Z,61.60
2022-08-18T21:47:34.414Z,61.80
2022-08-18T21:50:10.625Z,61.70
2022-08-18T21:52:51.148Z,61.70
2022-08-18T21:55:27.910Z,61.70
2022-08-18T21:58:05.528Z,61.70
2022-08-18T22:00:37.237Z,61.40
2022-08-18T22:03:21.731Z,61.30
2022-08-18T22:06:00.888Z,60.80
2022-08-18T22:08:32.724Z,60.60
2022-08-18T22:11:51.870Z,60.50
2022-08-18T22:14:54.062Z,60.50
2022-08-18T22:17:27.509Z,60.70
2022-08-18T22:20:35.152Z,60.90
2022-08-18T22:23:26.341Z,61.00
2022-08-18T22:26:06.170Z,61.10
2022-08-18T22:28:36.891Z,61.10
2022-08-18T22:31:06.505Z,60.90
2022-08-18T22:33:35.566Z,60.90
2022-08-18T22:36:06.749Z,60.90
2022-08-18T22:38:36.266Z,60.90
2022-08-18T22:41:05.380Z,61.00
2022-08-18T22:43:37.574Z,61.00
2022-08-18T22:46:06.905Z,60.90
2022-08-18T22:48:35.981Z,60.80
2022-08-18T22:51:07.899Z,60.90
2022-08-18T22:53:37.803Z,61.00
2022-08-18T22:56:08.194Z,61.00
2022-08-18T22:58:37.772Z,61.10
2022-08-18T23:01:08.359Z,61.10
2022-08-18T23:03:42.625Z,61.10
2022-08-18T23:06:13.214Z,61.20
2022-08-18T23:08:55.114Z,61.40
2022-08-18T23:11:25.900Z,61.50
2022-08-18T23:13:56.270Z,61.60
2022-08-18T23:16:31.848Z,61.70
2022-08-18T23:19:03.095Z,62.00
2022-08-18T23:21:35.806Z,62.10
2022-08-18T23:24:06.019Z,62.30
2022-08-18T23:26:36.272Z,62.40
2022-08-18T23:29:06.542Z,62.60
2022-08-18T23:31:35.608Z,62.70
2022-08-18T23:34:04.850Z,62.90
2022-08-18T23:36:36.134Z,63.10
2022-08-18T23:39:05.799Z,63.20
2022-08-18T23:41:35.905Z,63.40
2022-08-18T23:44:06.526Z,63.50
2022-08-18T23:46:36.358Z,63.60
2022-08-18T23:49:07.679Z,63.70
2022-08-18T23:51:44.642Z,63.80
2022-08-18T23:54:17.038Z,63.80
2022-08-18T23:56:46.987Z,63.80
2022-08-18T23:59:17.449Z,64.00
